Altoona, Wisconsin
Current Conditions -  °F | °C
As of 12:56 PM on Friday 28 Nov 2014 (Local Time) from KEAU Reporting Station
Overcast Overcast  
Wind Chill: 12°   Ceiling: 2500
Heat Index: 20°   Visibility: 10mi
Dew Point: 12°   Wind: 6mph
Humidity: 71%   Direction: 140°SE
Pressure: 29.93"   Gusts: NA
Location:  44.81°N, 91.43°W
Report Text: KEAU 281856Z 14005KT 10SM BKN025 OVC065 M07/M11 A2993 RMK AO2 SLP155 T10671111
Loading
Personal Weather Stations






























Interactive Weather Map New forecast layout! Learn more

10-Day Weather Forecast

Advertisements
Track Severe Weather on mobile